Time;durP1;ratioP1;P1;durP2;ratioP2;P2;SDS_P1;SDS_P2;PMS_P1;PMS_P2;Temp;Humidity;BMP_temperature;BMP_pressure;BME280_temperature;BME280_humidity;BME280_pressure;Samples;Min_cycle;Max_cycle;Signal;HPM_P1;HPM_P2
2022/09/18 00:02:01;;;;;;;15.35;2.03;;;10.40;99.90;;;;;;5021258;28;20475;-75
2022/09/18 00:04:27;;;;;;;13.75;2.15;;;10.40;99.90;;;;;;5003104;28;20103;-75
2022/09/18 00:06:53;;;;;;;20.67;1.95;;;10.40;99.90;;;;;;5017578;28;20086;-75
2022/09/18 00:09:19;;;;;;;20.40;1.90;;;10.40;99.90;;;;;;5027578;28;20037;-74
2022/09/18 00:11:47;;;;;;;11.77;1.80;;;10.40;99.90;;;;;;5025887;28;20132;-75
2022/09/18 00:14:17;;;;;;;16.85;1.70;;;10.50;99.90;;;;;;5004988;28;20052;-74
2022/09/18 00:16:43;;;;;;;16.52;1.67;;;10.50;99.90;;;;;;5000604;28;20051;-74
2022/09/18 00:19:09;;;;;;;12.18;1.40;;;10.50;99.90;;;;;;5023350;28;20033;-76
2022/09/18 00:21:38;;;;;;;10.48;1.63;;;10.50;99.90;;;;;;5021014;28;20099;-75
2022/09/18 00:24:04;;;;;;;9.68;1.70;;;10.60;99.90;;;;;;5005421;28;20397;-73
2022/09/18 00:26:30;;;;;;;10.20;1.60;;;10.70;99.90;;;;;;5004568;28;20033;-74
2022/09/18 00:28:57;;;;;;;12.40;1.90;;;10.70;99.90;;;;;;5008480;28;20029;-73
2022/09/18 00:31:26;;;;;;;12.60;2.00;;;10.70;99.90;;;;;;4988689;28;20037;-74
2022/09/18 00:33:53;;;;;;;16.60;1.83;;;10.70;99.90;;;;;;5003670;28;20052;-73
2022/09/18 00:36:19;;;;;;;20.48;2.58;;;10.60;99.90;;;;;;5002492;28;20045;-74
2022/09/18 00:38:46;;;;;;;18.25;2.13;;;10.60;99.90;;;;;;4993762;28;20049;-75
2022/09/18 00:41:24;;;;;;;13.48;1.83;;;10.60;99.90;;;;;;5000624;28;20049;-74
2022/09/18 00:43:51;;;;;;;13.77;2.05;;;10.60;99.90;;;;;;4987808;28;20129;-75
2022/09/18 00:46:28;;;;;;;15.77;1.83;;;10.60;99.90;;;;;;5005203;28;20053;-75
2022/09/18 00:49:15;;;;;;;12.60;2.10;;;10.50;99.90;;;;;;4982671;28;20033;-74
2022/09/18 00:51:46;;;;;;;17.58;2.08;;;10.50;99.90;;;;;;5005452;28;20091;-75
2022/09/18 00:54:29;;;;;;;16.83;1.95;;;10.50;99.90;;;;;;4990104;28;20196;-75
2022/09/18 00:56:59;;;;;;;13.90;2.13;;;10.60;99.90;;;;;;4993239;28;20365;-74
2022/09/18 00:59:28;;;;;;;17.42;2.65;;;10.60;99.90;;;;;;5004837;28;20131;-74
2022/09/18 01:01:55;;;;;;;18.48;3.20;;;10.70;99.90;;;;;;4987269;28;20481;-75
2022/09/18 01:04:21;;;;;;;14.20;3.10;;;10.80;99.90;;;;;;5002476;28;20112;-74
2022/09/18 01:06:56;;;;;;;17.25;2.90;;;10.70;99.90;;;;;;4999410;28;20053;-73
2022/09/18 01:09:47;;;;;;;16.58;1.65;;;10.80;99.90;;;;;;4989233;28;20037;-73
2022/09/18 01:12:18;;;;;;;12.30;1.60;;;10.70;99.90;;;;;;5020536;28;20135;-74
2022/09/18 01:14:47;;;;;;;15.35;1.60;;;10.70;99.90;;;;;;5021230;28;20037;-74
2022/09/18 01:17:40;;;;;;;17.02;1.80;;;10.60;99.90;;;;;;5004693;28;20060;-75
2022/09/18 01:20:27;;;;;;;12.70;1.80;;;10.50;99.90;;;;;;5002469;28;20057;-75
2022/09/18 01:23:26;;;;;;;13.35;1.52;;;10.50;99.90;;;;;;5038617;28;20403;-74
2022/09/18 01:25:55;;;;;;;15.88;1.75;;;10.40;99.90;;;;;;5003068;28;20453;-75
2022/09/18 01:28:25;;;;;;;10.27;1.55;;;10.30;99.90;;;;;;5017241;28;20124;-74
2022/09/18 01:30:56;;;;;;;11.93;1.80;;;10.30;99.90;;;;;;5020950;28;20123;-75
2022/09/18 01:33:35;;;;;;;12.68;2.05;;;10.30;99.90;;;;;;5004665;28;20045;-73
2022/09/18 01:36:06;;;;;;;19.20;1.83;;;10.30;99.90;;;;;;5003215;28;20048;-74
2022/09/18 01:38:36;;;;;;;16.75;1.75;;;10.30;99.90;;;;;;5023243;28;20067;-73
2022/09/18 01:41:08;;;;;;;14.07;1.77;;;10.30;99.90;;;;;;5016310;28;20056;-74
2022/09/18 01:43:36;;;;;;;16.23;1.65;;;10.30;99.90;;;;;;5005420;28;20041;-73
2022/09/18 01:46:08;;;;;;;12.43;1.85;;;10.30;99.90;;;;;;5025962;28;20399;-75
2022/09/18 01:48:39;;;;;;;15.00;1.67;;;10.30;99.90;;;;;;5004339;28;20041;-73
2022/09/18 01:51:17;;;;;;;13.70;1.80;;;10.40;99.90;;;;;;5005929;28;20156;-74
2022/09/18 01:53:47;;;;;;;13.23;1.98;;;10.30;99.90;;;;;;5025264;28;20159;-75
2022/09/18 01:56:26;;;;;;;12.52;1.90;;;10.40;99.90;;;;;;5024258;28;20045;-76
2022/09/18 01:58:56;;;;;;;17.35;2.60;;;10.40;99.90;;;;;;5008007;28;20037;-76
2022/09/18 02:01:26;;;;;;;15.70;2.72;;;10.40;99.90;;;;;;5011751;28;20037;-73
2022/09/18 02:04:07;;;;;;;11.75;2.65;;;10.50;99.90;;;;;;5012506;28;20060;-75
2022/09/18 02:07:01;;;;;;;15.48;3.55;;;10.50;99.90;;;;;;5025532;28;21713;-74
2022/09/18 02:09:28;;;;;;;13.85;2.03;;;10.60;99.90;;;;;;5002510;28;20041;-75
2022/09/18 02:11:57;;;;;;;15.30;1.95;;;10.50;99.90;;;;;;5020629;28;20032;-75
2022/09/18 02:14:26;;;;;;;9.15;1.40;;;10.60;99.90;;;;;;5004841;28;20044;-74
2022/09/18 02:17:02;;;;;;;18.00;1.90;;;10.50;99.90;;;;;;5026755;28;20041;-75
2022/09/18 02:19:35;;;;;;;15.95;2.33;;;10.50;99.90;;;;;;5029064;28;20127;-74
2022/09/18 02:22:04;;;;;;;11.07;1.83;;;10.40;99.90;;;;;;5023494;28;20052;-75
2022/09/18 02:24:35;;;;;;;14.70;1.92;;;10.50;99.90;;;;;;5022509;28;20059;-74
2022/09/18 02:27:03;;;;;;;19.10;1.67;;;10.50;99.90;;;;;;5023283;28;20061;-74
2022/09/18 02:29:30;;;;;;;18.83;2.35;;;10.40;99.90;;;;;;5011231;28;20152;-75
2022/09/18 02:31:58;;;;;;;12.82;1.42;;;10.40;99.90;;;;;;5027168;28;20098;-74
2022/09/18 02:34:24;;;;;;;16.33;1.90;;;10.40;99.90;;;;;;5008482;28;20088;-76
2022/09/18 02:36:56;;;;;;;14.88;2.03;;;10.30;99.90;;;;;;5023988;28;20042;-75
2022/09/18 02:39:46;;;;;;;16.83;1.63;;;10.30;99.90;;;;;;5023750;28;21754;-75
2022/09/18 02:42:34;;;;;;;13.82;2.25;;;10.30;99.90;;;;;;5022949;28;20049;-75
2022/09/18 02:45:15;;;;;;;20.40;1.90;;;10.30;99.90;;;;;;5025666;28;20118;-76
2022/09/18 02:48:08;;;;;;;18.98;2.28;;;10.30;99.90;;;;;;5025954;28;20033;-75
2022/09/18 02:51:06;;;;;;;15.75;2.03;;;10.30;99.90;;;;;;5006901;28;20559;-75
2022/09/18 02:53:53;;;;;;;13.88;1.80;;;10.40;99.90;;;;;;5010250;28;20041;-76
2022/09/18 02:56:38;;;;;;;17.65;2.10;;;10.40;99.90;;;;;;5025599;28;20480;-74
2022/09/18 02:59:24;;;;;;;17.38;1.90;;;10.50;99.90;;;;;;5018752;28;20476;-75
2022/09/18 03:01:51;;;;;;;15.80;1.83;;;10.50;99.90;;;;;;5019505;28;20056;-76
2022/09/18 03:04:22;;;;;;;12.02;1.50;;;10.60;99.90;;;;;;5025003;28;20045;-75
2022/09/18 03:06:48;;;;;;;14.45;1.90;;;10.60;99.90;;;;;;5001004;28;20040;-74
2022/09/18 03:09:15;;;;;;;16.20;2.00;;;10.70;99.90;;;;;;5019049;28;20044;-74
2022/09/18 03:11:41;;;;;;;16.80;1.70;;;10.70;99.90;;;;;;4998208;28;20036;-75
2022/09/18 03:14:07;;;;;;;14.90;1.73;;;10.60;99.90;;;;;;5024073;28;20082;-75
2022/09/18 03:16:32;;;;;;;11.48;1.83;;;10.70;99.90;;;;;;5019870;28;20045;-74
2022/09/18 03:18:58;;;;;;;14.27;1.90;;;10.70;99.90;;;;;;5023551;28;20069;-74
2022/09/18 03:21:25;;;;;;;14.93;1.77;;;10.70;99.90;;;;;;5008744;28;20163;-72
2022/09/18 03:23:51;;;;;;;11.30;1.92;;;10.70;99.90;;;;;;5038132;28;20040;-76
2022/09/18 03:26:17;;;;;;;13.68;1.70;;;10.70;99.90;;;;;;5010632;28;20389;-74
2022/09/18 03:28:43;;;;;;;13.88;1.80;;;10.70;99.90;;;;;;5024383;28;20076;-75
2022/09/18 03:31:09;;;;;;;14.88;1.92;;;10.70;99.90;;;;;;5021242;28;20041;-75
2022/09/18 03:33:36;;;;;;;15.10;2.08;;;10.60;99.90;;;;;;5006010;28;20065;-75
2022/09/18 03:36:02;;;;;;;10.93;1.45;;;10.60;99.90;;;;;;5015151;28;20056;-75
2022/09/18 03:38:28;;;;;;;14.07;1.38;;;10.50;99.90;;;;;;5024105;28;20098;-74
2022/09/18 03:40:54;;;;;;;6.97;1.10;;;10.50;99.90;;;;;;5022809;28;21128;-75
2022/09/18 03:43:19;;;;;;;10.05;1.40;;;10.50;99.90;;;;;;5020486;28;20036;-74
2022/09/18 03:45:45;;;;;;;13.80;1.48;;;10.50;99.90;;;;;;5025085;28;20028;-75
2022/09/18 03:48:10;;;;;;;10.82;1.45;;;10.50;99.90;;;;;;5022988;28;20131;-74
2022/09/18 03:50:36;;;;;;;8.90;1.17;;;10.50;99.90;;;;;;5019952;28;20066;-75
2022/09/18 03:53:02;;;;;;;9.10;1.30;;;10.50;99.90;;;;;;5043612;28;20041;-75
2022/09/18 03:55:27;;;;;;;8.55;1.30;;;10.40;99.90;;;;;;5000600;28;20048;-75
2022/09/18 03:57:53;;;;;;;10.10;1.55;;;10.40;99.90;;;;;;5009432;28;20049;-75
2022/09/18 04:00:19;;;;;;;17.50;1.73;;;10.40;99.90;;;;;;5017812;28;20106;-76
2022/09/18 04:02:44;;;;;;;11.77;1.63;;;10.40;99.90;;;;;;5010878;28;20136;-74
2022/09/18 04:05:10;;;;;;;11.93;1.38;;;10.40;99.90;;;;;;5024478;28;20155;-76
2022/09/18 04:07:36;;;;;;;9.98;1.77;;;10.40;99.90;;;;;;5039758;28;20115;-76
2022/09/18 04:10:02;;;;;;;11.18;1.35;;;10.40;99.90;;;;;;5020601;28;20094;-74
2022/09/18 04:12:28;;;;;;;12.93;1.60;;;10.40;99.90;;;;;;5005816;28;20425;-75
2022/09/18 04:14:54;;;;;;;12.52;1.55;;;10.30;99.90;;;;;;5023418;28;20136;-74
2022/09/18 04:17:20;;;;;;;14.20;1.38;;;10.30;99.90;;;;;;5026363;28;20083;-73
2022/09/18 04:19:45;;;;;;;19.15;2.08;;;10.40;99.90;;;;;;5006844;28;20338;-73
2022/09/18 04:22:11;;;;;;;12.63;1.80;;;10.40;99.90;;;;;;5009358;28;20056;-75
2022/09/18 04:24:38;;;;;;;13.88;1.70;;;10.30;99.90;;;;;;5022804;28;20053;-73
2022/09/18 04:27:05;;;;;;;11.85;1.90;;;10.30;99.90;;;;;;5004094;28;20049;-74
2022/09/18 04:29:30;;;;;;;9.82;1.55;;;10.30;99.90;;;;;;5007473;28;20049;-76
2022/09/18 04:31:56;;;;;;;16.67;1.70;;;10.30;99.90;;;;;;5020067;28;20477;-74
2022/09/18 04:34:21;;;;;;;9.65;1.50;;;10.30;99.90;;;;;;5023253;28;20136;-73
2022/09/18 04:36:47;;;;;;;12.23;1.58;;;10.20;99.90;;;;;;5005931;28;20060;-75
2022/09/18 04:39:13;;;;;;;13.45;1.50;;;10.40;99.90;;;;;;5020640;28;20052;-74
2022/09/18 04:41:39;;;;;;;9.15;1.38;;;10.50;99.90;;;;;;5017376;28;20041;-75
2022/09/18 04:44:05;;;;;;;13.10;1.40;;;10.30;99.90;;;;;;5022122;28;20084;-75
2022/09/18 04:46:32;;;;;;;11.27;1.20;;;10.30;99.90;;;;;;5006523;28;20049;-75
2022/09/18 04:48:58;;;;;;;10.20;1.10;;;10.30;99.90;;;;;;5009290;28;20489;-75
2022/09/18 04:51:23;;;;;;;11.23;1.20;;;10.30;99.90;;;;;;5026298;28;20128;-76
2022/09/18 04:53:49;;;;;;;12.65;1.55;;;10.30;99.90;;;;;;5020258;28;20162;-74
2022/09/18 04:56:15;;;;;;;12.73;1.83;;;10.30;99.90;;;;;;5023725;28;20048;-75
2022/09/18 04:58:40;;;;;;;8.95;1.30;;;10.30;99.90;;;;;;5019056;28;20486;-73
2022/09/18 05:01:06;;;;;;;12.82;1.60;;;10.30;99.90;;;;;;5019616;28;20074;-74
2022/09/18 05:03:31;;;;;;;8.73;1.42;;;10.30;99.90;;;;;;5028334;28;20033;-74
2022/09/18 05:05:57;;;;;;;6.93;1.20;;;10.30;99.90;;;;;;5017332;28;20037;-73
2022/09/18 05:08:23;;;;;;;18.98;1.45;;;10.30;99.90;;;;;;5024551;28;20025;-76
2022/09/18 05:10:48;;;;;;;11.27;1.40;;;10.30;99.90;;;;;;5019832;28;20421;-75
2022/09/18 05:13:14;;;;;;;10.43;1.60;;;10.30;99.90;;;;;;5012363;28;20040;-72
2022/09/18 05:15:40;;;;;;;7.15;1.13;;;10.30;99.90;;;;;;5001468;28;20369;-75
2022/09/18 05:18:07;;;;;;;8.90;1.33;;;10.50;99.90;;;;;;5025441;28;20045;-75
2022/09/18 05:20:34;;;;;;;11.82;1.58;;;10.40;99.90;;;;;;5032611;28;20526;-75
2022/09/18 05:23:00;;;;;;;12.23;1.40;;;10.40;99.90;;;;;;5027097;28;20056;-74
2022/09/18 05:25:27;;;;;;;9.48;1.38;;;10.40;99.90;;;;;;5024740;28;20080;-75
2022/09/18 05:28:01;;;;;;;7.05;1.20;;;10.30;99.90;;;;;;5026789;28;20052;-74
2022/09/18 05:30:28;;;;;;;6.38;1.02;;;10.40;99.90;;;;;;5024335;28;20045;-75
2022/09/18 05:33:03;;;;;;;6.05;1.00;;;10.40;99.90;;;;;;5025612;28;20051;-75
2022/09/18 05:35:31;;;;;;;5.70;0.82;;;10.40;99.90;;;;;;5040106;28;20396;-73
2022/09/18 05:37:57;;;;;;;12.27;1.15;;;10.40;99.90;;;;;;5028608;28;20041;-74
2022/09/18 05:40:25;;;;;;;6.22;0.82;;;10.30;99.90;;;;;;5009891;28;20162;-75
2022/09/18 05:42:52;;;;;;;3.63;0.80;;;10.40;99.90;;;;;;5004995;28;20049;-77
2022/09/18 05:45:18;;;;;;;4.68;0.90;;;10.30;99.90;;;;;;5025836;28;20388;-74
2022/09/18 05:48:01;;;;;;;7.70;1.20;;;10.40;99.90;;;;;;5028548;28;20318;-73
2022/09/18 05:50:28;;;;;;;9.27;1.15;;;10.40;99.90;;;;;;5029015;28;20075;-74
2022/09/18 05:53:10;;;;;;;6.38;0.90;;;10.40;99.90;;;;;;5010044;28;20063;-74
2022/09/18 05:55:36;;;;;;;6.25;0.90;;;10.40;99.90;;;;;;5009515;28;20036;-75
2022/09/18 05:58:03;;;;;;;8.25;1.05;;;10.40;99.90;;;;;;5028729;28;20075;-74
2022/09/18 06:00:31;;;;;;;5.20;0.80;;;10.50;99.90;;;;;;5026800;28;20041;-74
2022/09/18 06:02:59;;;;;;;10.45;1.38;;;10.50;99.90;;;;;;5027255;28;20111;-74
2022/09/18 06:05:25;;;;;;;10.65;1.23;;;10.50;99.90;;;;;;5028736;28;20333;-74
2022/09/18 06:07:51;;;;;;;3.55;0.82;;;10.50;99.90;;;;;;5048404;28;20041;-72
2022/09/18 06:10:19;;;;;;;9.95;1.45;;;10.60;99.90;;;;;;5015954;28;20057;-74
2022/09/18 06:12:44;;;;;;;8.20;1.20;;;10.60;99.90;;;;;;5016451;28;20041;-74
2022/09/18 06:15:11;;;;;;;11.05;1.80;;;10.50;99.90;;;;;;5030378;28;20037;-74
2022/09/18 06:17:37;;;;;;;7.32;1.50;;;10.50;99.90;;;;;;5036161;28;20135;-74
2022/09/18 06:20:04;;;;;;;14.48;1.83;;;10.60;99.90;;;;;;5012538;28;20090;-75
2022/09/18 06:22:34;;;;;;;12.13;1.45;;;10.60;99.90;;;;;;4992450;28;20056;-75
2022/09/18 06:24:59;;;;;;;11.85;1.33;;;10.70;99.90;;;;;;5026718;28;20037;-74
2022/09/18 06:27:25;;;;;;;11.88;1.10;;;10.60;99.90;;;;;;5010738;28;20150;-76
2022/09/18 06:29:52;;;;;;;15.98;1.60;;;10.60;99.90;;;;;;5023641;28;20476;-76
2022/09/18 06:32:19;;;;;;;15.68;1.63;;;10.70;99.90;;;;;;5030508;28;20067;-76
2022/09/18 06:34:47;;;;;;;12.18;1.40;;;10.70;99.90;;;;;;5025828;28;20112;-76
2022/09/18 06:37:14;;;;;;;8.95;1.02;;;10.70;99.90;;;;;;5023659;28;20048;-76
2022/09/18 06:39:40;;;;;;;13.68;1.15;;;10.80;99.90;;;;;;5007073;28;20148;-74
2022/09/18 06:42:06;;;;;;;6.07;1.10;;;10.80;99.90;;;;;;5041075;28;20033;-75
2022/09/18 06:44:32;;;;;;;14.77;1.50;;;10.90;99.90;;;;;;5026302;28;20037;-75
2022/09/18 06:46:57;;;;;;;10.30;1.20;;;11.00;99.90;;;;;;5026372;28;20495;-75
2022/09/18 06:49:23;;;;;;;8.05;1.38;;;11.00;99.90;;;;;;5023989;28;20442;-73
2022/09/18 06:51:49;;;;;;;8.73;1.10;;;11.10;99.90;;;;;;5023099;28;20037;-75
2022/09/18 06:54:15;;;;;;;7.10;1.20;;;11.10;99.90;;;;;;5025256;28;20673;-79
2022/09/18 06:56:41;;;;;;;7.45;1.38;;;11.10;99.90;;;;;;5026394;28;20041;-77
2022/09/18 06:59:07;;;;;;;6.72;1.00;;;11.20;99.90;;;;;;5010313;28;20470;-77
2022/09/18 07:01:33;;;;;;;8.02;1.25;;;11.20;99.90;;;;;;5007983;28;20095;-76
2022/09/18 07:03:59;;;;;;;7.70;1.67;;;11.10;99.90;;;;;;5024129;28;20087;-78
2022/09/18 07:06:25;;;;;;;15.40;1.45;;;11.10;99.90;;;;;;5021364;28;20150;-76
2022/09/18 07:08:51;;;;;;;4.80;0.80;;;11.10;99.90;;;;;;5022652;28;20064;-75
2022/09/18 07:11:17;;;;;;;12.75;1.40;;;11.10;99.90;;;;;;5007325;28;20041;-75
2022/09/18 07:13:42;;;;;;;5.65;1.20;;;11.10;99.90;;;;;;5026108;28;20036;-76
2022/09/18 07:16:08;;;;;;;9.32;1.17;;;11.10;99.90;;;;;;5026395;28;20041;-75
2022/09/18 07:18:34;;;;;;;8.70;1.20;;;11.10;99.90;;;;;;5029486;28;20049;-73
2022/09/18 07:21:00;;;;;;;9.82;0.98;;;11.10;99.90;;;;;;5019065;28;21849;-74
2022/09/18 07:23:28;;;;;;;9.95;0.98;;;11.10;99.90;;;;;;5027965;28;20042;-76
2022/09/18 07:25:54;;;;;;;8.88;0.90;;;11.10;99.90;;;;;;5006069;28;20040;-74
2022/09/18 07:28:19;;;;;;;11.32;0.90;;;11.10;99.90;;;;;;5005461;28;20033;-74
2022/09/18 07:30:45;;;;;;;8.80;1.00;;;11.10;99.90;;;;;;5004983;28;20110;-77
2022/09/18 07:33:11;;;;;;;7.22;1.15;;;11.10;99.90;;;;;;5004798;28;20044;-74
2022/09/18 07:35:38;;;;;;;10.80;1.20;;;11.10;99.90;;;;;;5004572;28;20511;-77
2022/09/18 07:38:05;;;;;;;12.30;1.25;;;11.10;99.90;;;;;;4999433;28;20124;-75
2022/09/18 07:40:32;;;;;;;12.48;1.30;;;11.10;99.90;;;;;;5017741;28;20037;-73
2022/09/18 07:42:59;;;;;;;8.95;1.80;;;11.10;99.90;;;;;;5020689;28;20053;-76
2022/09/18 07:45:25;;;;;;;11.82;1.30;;;11.10;99.90;;;;;;5021389;28;20045;-75
2022/09/18 07:47:50;;;;;;;13.05;1.50;;;11.10;99.90;;;;;;5019410;28;20063;-77
2022/09/18 07:50:16;;;;;;;6.07;1.05;;;11.00;99.90;;;;;;5022837;28;20037;-74
2022/09/18 07:52:50;;;;;;;11.95;1.58;;;11.10;99.90;;;;;;5020974;28;20488;-74
2022/09/18 07:55:18;;;;;;;7.95;1.35;;;11.20;99.90;;;;;;5019787;28;20068;-75
2022/09/18 07:57:44;;;;;;;9.60;1.48;;;11.10;99.90;;;;;;5003873;28;20040;-76
2022/09/18 08:00:10;;;;;;;12.13;1.38;;;11.10;99.90;;;;;;5004083;28;20075;-74
2022/09/18 08:02:36;;;;;;;13.50;1.83;;;11.10;99.90;;;;;;5002978;28;20052;-73
2022/09/18 08:05:02;;;;;;;8.90;1.40;;;11.10;99.90;;;;;;5019721;28;20044;-75
2022/09/18 08:07:27;;;;;;;8.43;1.23;;;11.00;99.90;;;;;;5017239;28;20132;-74
2022/09/18 08:09:53;;;;;;;7.07;1.25;;;11.10;99.90;;;;;;5024936;28;20037;-76
2022/09/18 08:12:18;;;;;;;11.52;1.63;;;11.20;99.90;;;;;;5026686;28;20056;-75
2022/09/18 08:14:44;;;;;;;10.77;1.95;;;11.10;99.90;;;;;;4999439;28;20389;-75
2022/09/18 08:17:10;;;;;;;8.93;1.20;;;11.10;99.90;;;;;;5020601;28;20037;-76
2022/09/18 08:19:35;;;;;;;16.52;1.50;;;11.20;99.90;;;;;;5027877;28;20511;-77
2022/09/18 08:22:03;;;;;;;9.88;1.60;;;11.10;99.90;;;;;;5040824;28;20083;-77
2022/09/18 08:24:28;;;;;;;8.35;1.27;;;11.20;99.90;;;;;;5014475;28;20057;-74
2022/09/18 08:27:01;;;;;;;16.38;1.60;;;11.20;99.90;;;;;;5022711;28;20037;-76
2022/09/18 08:29:28;;;;;;;11.27;1.38;;;11.20;99.90;;;;;;5006947;28;21733;-73
2022/09/18 08:31:53;;;;;;;9.13;1.20;;;11.20;99.90;;;;;;5001577;28;20085;-76
2022/09/18 08:34:19;;;;;;;5.80;1.08;;;11.30;99.90;;;;;;5037026;28;20044;-78
2022/09/18 08:36:44;;;;;;;10.25;1.27;;;11.30;99.90;;;;;;5017078;28;20093;-76
2022/09/18 08:39:11;;;;;;;11.02;1.55;;;11.20;99.90;;;;;;5001482;28;20041;-76
2022/09/18 08:42:04;;;;;;;8.93;1.27;;;11.20;99.90;;;;;;5019329;28;20056;-75
2022/09/18 08:44:39;;;;;;;9.27;1.50;;;11.20;99.90;;;;;;5001991;28;20111;-74
2022/09/18 08:47:21;;;;;;;9.98;1.50;;;11.30;99.90;;;;;;5019759;28;20062;-75
2022/09/18 08:49:52;;;;;;;11.70;1.30;;;11.30;99.90;;;;;;5022172;28;20045;-74
2022/09/18 08:52:27;;;;;;;6.13;1.23;;;11.30;99.90;;;;;;5018558;28;20056;-76
2022/09/18 08:55:08;;;;;;;9.23;1.40;;;11.20;99.90;;;;;;5000859;28;20388;-74
2022/09/18 08:57:42;;;;;;;9.43;1.67;;;11.30;99.90;;;;;;5026967;28;20053;-74
2022/09/18 09:00:26;;;;;;;9.13;1.45;;;11.40;99.90;;;;;;5023263;28;20052;-75
2022/09/18 09:03:00;;;;;;;8.85;1.38;;;11.30;99.90;;;;;;5002639;28;20124;-76
2022/09/18 09:05:42;;;;;;;9.35;1.40;;;11.20;99.90;;;;;;5026153;28;20037;-75
2022/09/18 09:08:10;;;;;;;9.05;1.50;;;11.20;99.90;;;;;;5024032;28;20988;-75
2022/09/18 09:10:41;;;;;;;6.05;1.13;;;11.20;99.90;;;;;;5000523;28;20044;-75
2022/09/18 09:13:26;;;;;;;12.35;1.15;;;11.10;99.90;;;;;;5022621;28;20488;-76
2022/09/18 09:16:18;;;;;;;10.32;1.48;;;11.10;99.90;;;;;;5004515;28;20349;-76
2022/09/18 09:18:59;;;;;;;17.50;1.77;;;11.10;99.90;;;;;;5007372;28;20053;-76
2022/09/18 09:21:56;;;;;;;14.90;1.58;;;11.00;99.90;;;;;;4998057;28;20746;-76
2022/09/18 09:24:28;;;;;;;12.85;1.55;;;11.00;99.90;;;;;;4958464;28;20077;-74
2022/09/18 09:26:56;;;;;;;8.88;1.63;;;11.00;99.90;;;;;;4945821;28;20090;-74
2022/09/18 09:29:32;;;;;;;13.18;1.45;;;11.00;99.90;;;;;;4927618;28;20061;-77
2022/09/18 09:32:06;;;;;;;9.57;1.52;;;10.90;99.90;;;;;;4941957;28;20150;-77
2022/09/18 09:34:56;;;;;;;7.05;1.33;;;11.00;99.90;;;;;;4943392;28;20445;-74
2022/09/18 09:37:28;;;;;;;10.52;1.42;;;11.00;99.90;;;;;;4941592;28;20093;-75
2022/09/18 09:39:58;;;;;;;13.32;2.00;;;11.10;99.90;;;;;;4940534;28;20379;-75
2022/09/18 09:42:34;;;;;;;11.23;1.48;;;11.20;99.90;;;;;;4943158;28;20580;-76
2022/09/18 09:45:13;;;;;;;8.15;1.30;;;11.20;99.90;;;;;;4943130;28;20111;-75
2022/09/18 09:48:07;;;;;;;13.98;1.40;;;11.30;99.90;;;;;;4926762;28;20062;-75
2022/09/18 09:51:07;;;;;;;12.00;1.63;;;11.30;99.90;;;;;;4940053;28;20034;-78
2022/09/18 09:53:33;;;;;;;9.43;1.27;;;11.40;99.90;;;;;;4932159;28;20058;-76
2022/09/18 09:56:11;;;;;;;8.05;1.50;;;11.50;99.90;;;;;;4972714;28;20058;-77
2022/09/18 09:58:59;;;;;;;9.65;1.67;;;11.50;99.90;;;;;;4952947;28;20746;-76
2022/09/18 10:01:39;;;;;;;11.75;1.73;;;11.60;99.90;;;;;;4986300;28;20102;-74
2022/09/18 10:04:32;;;;;;;9.07;1.35;;;11.60;99.90;;;;;;4990838;28;20041;-74
2022/09/18 10:07:15;;;;;;;10.25;1.40;;;11.60;99.90;;;;;;5012947;28;20052;-73
2022/09/18 10:09:50;;;;;;;6.38;1.17;;;11.70;99.90;;;;;;4979637;28;20041;-74
2022/09/18 10:12:42;;;;;;;15.57;1.85;;;11.70;99.90;;;;;;4981286;28;20124;-77
2022/09/18 10:15:36;;;;;;;11.02;1.30;;;11.70;99.90;;;;;;4984502;28;20256;-80
2022/09/18 10:18:06;;;;;;;13.18;1.40;;;11.70;99.90;;;;;;4980145;28;20500;-76
2022/09/18 10:20:35;;;;;;;9.63;1.70;;;11.70;99.90;;;;;;5000999;28;20057;-74
2022/09/18 10:23:25;;;;;;;7.28;1.48;;;11.70;99.90;;;;;;5002747;28;20057;-75
2022/09/18 10:25:58;;;;;;;12.48;2.08;;;11.80;99.90;;;;;;5035227;28;20433;-76
2022/09/18 10:28:28;;;;;;;14.02;1.90;;;11.80;99.90;;;;;;5005752;28;20522;-76
2022/09/18 10:30:59;;;;;;;11.70;1.60;;;11.80;99.90;;;;;;5017203;28;20116;-79
2022/09/18 10:33:36;;;;;;;13.65;2.35;;;12.00;99.90;;;;;;5022725;28;20041;-74
2022/09/18 10:36:08;;;;;;;17.77;2.20;;;12.20;99.90;;;;;;5018747;28;20052;-79
2022/09/18 10:38:36;;;;;;;13.90;1.92;;;12.20;99.90;;;;;;5003108;28;20039;-77
2022/09/18 10:41:16;;;;;;;14.43;1.77;;;12.10;99.90;;;;;;5019001;28;20045;-77
2022/09/18 10:43:55;;;;;;;11.85;1.98;;;12.10;99.90;;;;;;5022250;28;20037;-75
2022/09/18 10:46:25;;;;;;;11.32;2.08;;;12.30;99.90;;;;;;5022377;28;20067;-78
2022/09/18 10:48:51;;;;;;;13.45;2.30;;;12.30;99.90;;;;;;5006076;28;20040;-76
2022/09/18 10:51:20;;;;;;;12.35;2.72;;;12.50;99.90;;;;;;5019625;28;20045;-78
2022/09/18 10:54:00;;;;;;;18.90;2.40;;;12.70;99.90;;;;;;5021455;28;20066;-78
2022/09/18 10:56:26;;;;;;;11.63;2.38;;;12.90;99.90;;;;;;5023064;28;20047;-76
2022/09/18 10:58:51;;;;;;;11.80;1.90;;;13.00;99.90;;;;;;5025733;28;20041;-75
2022/09/18 11:01:18;;;;;;;11.82;1.88;;;13.00;99.90;;;;;;5019295;28;20469;-75
2022/09/18 11:03:58;;;;;;;12.43;2.20;;;13.10;99.90;;;;;;5017646;28;20041;-76
2022/09/18 11:06:26;;;;;;;17.90;1.80;;;13.30;99.90;;;;;;5021857;28;20249;-77
2022/09/18 11:08:57;;;;;;;12.90;1.85;;;13.30;99.90;;;;;;5023792;28;20370;-76
2022/09/18 11:11:29;;;;;;;7.10;1.45;;;13.40;99.90;;;;;;5019982;28;20056;-76
2022/09/18 11:14:23;;;;;;;15.88;2.00;;;13.50;99.90;;;;;;5018412;28;21587;-76
2022/09/18 11:16:53;;;;;;;8.40;1.83;;;13.80;99.90;;;;;;5008773;28;20052;-78
2022/09/18 11:19:49;;;;;;;11.80;1.75;;;14.00;99.90;;;;;;5026848;28;20531;-80
2022/09/18 11:22:37;;;;;;;15.68;2.53;;;13.90;99.90;;;;;;5010410;28;20096;-76
2022/09/18 11:25:22;;;;;;;11.77;2.22;;;14.00;99.90;;;;;;5018548;28;20048;-77
2022/09/18 11:27:50;;;;;;;12.63;2.10;;;14.00;99.90;;;;;;5002081;28;20369;-79
2022/09/18 11:30:22;;;;;;;12.88;1.70;;;14.10;99.90;;;;;;5003246;28;20049;-79
2022/09/18 11:32:52;;;;;;;10.93;1.58;;;14.10;99.90;;;;;;5005621;28;20412;-77
2022/09/18 11:35:19;;;;;;;9.07;1.65;;;14.20;99.90;;;;;;5006697;28;20045;-78
2022/09/18 11:37:47;;;;;;;10.85;1.80;;;14.30;99.90;;;;;;5020517;28;20033;-77
2022/09/18 11:40:31;;;;;;;12.77;1.95;;;14.30;99.90;;;;;;5003456;28;20071;-77
2022/09/18 11:42:58;;;;;;;11.93;2.17;;;14.20;99.90;;;;;;5003686;28;20028;-79
2022/09/18 11:45:43;;;;;;;12.18;2.92;;;14.30;99.90;;;;;;5020996;28;20053;-78
2022/09/18 11:48:28;;;;;;;10.55;2.25;;;14.30;99.90;;;;;;5023681;28;20048;-77
2022/09/18 11:50:56;;;;;;;10.57;2.10;;;14.50;99.90;;;;;;5008189;28;20080;-76
2022/09/18 11:53:41;;;;;;;14.00;2.05;;;14.50;99.90;;;;;;5005583;28;20053;-77
2022/09/18 11:56:33;;;;;;;11.02;2.15;;;14.50;99.90;;;;;;5005052;28;20047;-77
2022/09/18 11:59:04;;;;;;;14.63;2.00;;;14.50;99.90;;;;;;5022548;28;20341;-77
2022/09/18 12:01:51;;;;;;;14.20;2.00;;;14.50;99.90;;;;;;5015440;28;20056;-77
2022/09/18 12:04:31;;;;;;;15.40;2.17;;;14.60;99.90;;;;;;5004014;28;20483;-78
2022/09/18 12:07:26;;;;;;;12.82;1.95;;;14.40;99.90;;;;;;5024524;28;20267;-76
2022/09/18 12:10:15;;;;;;;11.25;2.65;;;14.40;99.90;;;;;;5019211;28;20138;-79
2022/09/18 12:13:05;;;;;;;16.45;2.85;;;14.50;99.90;;;;;;5003938;28;20056;-77
2022/09/18 12:15:36;;;;;;;10.70;1.88;;;14.60;99.90;;;;;;5038998;28;20087;-78
2022/09/18 12:18:27;;;;;;;10.15;2.35;;;14.60;99.90;;;;;;5020660;28;20053;-78
2022/09/18 12:21:00;;;;;;;16.52;2.70;;;14.60;99.90;;;;;;5015209;28;20627;-80
2022/09/18 12:23:26;;;;;;;12.07;2.10;;;14.80;99.90;;;;;;5017906;28;20918;-75
2022/09/18 12:26:17;;;;;;;10.30;1.75;;;14.70;99.90;;;;;;5018762;28;20193;-78
2022/09/18 12:28:49;;;;;;;8.30;1.50;;;14.60;99.90;;;;;;5018588;28;20483;-75
2022/09/18 12:31:52;;;;;;;7.45;1.30;;;14.60;99.90;;;;;;5016135;28;20045;-79
2022/09/18 12:34:18;;;;;;;8.05;1.50;;;14.70;99.90;;;;;;5005811;28;20040;-77
2022/09/18 12:37:09;;;;;;;7.13;1.50;;;14.80;99.90;;;;;;5002796;28;20148;-76
2022/09/18 12:39:50;;;;;;;7.63;1.63;;;14.80;99.90;;;;;;4999156;28;20033;-78
2022/09/18 12:42:31;;;;;;;11.32;2.13;;;14.70;99.90;;;;;;5001865;28;20045;-76
2022/09/18 12:45:30;;;;;;;7.82;1.35;;;14.70;99.90;;;;;;4997955;28;20056;-76
2022/09/18 12:48:14;;;;;;;8.52;1.67;;;14.60;99.90;;;;;;5001149;28;20130;-74
2022/09/18 12:50:49;;;;;;;9.73;1.88;;;14.60;99.90;;;;;;5003352;28;20498;-76
2022/09/18 12:53:16;;;;;;;;;;;14.60;99.90;;;;;;5022078;28;20045;-78
2022/09/18 12:55:54;;;;;;;11.85;1.70;;;14.60;99.90;;;;;;5018478;28;20031;-79
2022/09/18 12:58:31;;;;;;;6.82;1.30;;;14.60;99.90;;;;;;5024970;28;20039;-77
2022/09/18 13:01:00;;;;;;;7.68;1.30;;;14.70;99.90;;;;;;5017636;28;20045;-78
2022/09/18 13:03:33;;;;;;;10.10;1.45;;;14.70;99.90;;;;;;5015972;28;20124;-77
2022/09/18 13:06:06;;;;;;;6.63;1.30;;;14.70;99.90;;;;;;5006492;28;20089;-81